sensor_id;sensor_type;location;lat;lon;timestamp;P1;durP1;ratioP1;P2;durP2;ratioP2
11665;SDS011;5889;51.350;6.708;2023-07-28T00:02:15;8.00;;;4.40;;
11665;SDS011;5889;51.350;6.708;2023-07-28T00:04:42;7.63;;;4.43;;
11665;SDS011;5889;51.350;6.708;2023-07-28T00:07:08;5.63;;;4.32;;
11665;SDS011;5889;51.350;6.708;2023-07-28T00:09:35;7.68;;;4.47;;
11665;SDS011;5889;51.350;6.708;2023-07-28T00:12:03;6.90;;;5.45;;
11665;SDS011;5889;51.350;6.708;2023-07-28T00:14:31;7.55;;;6.75;;
11665;SDS011;5889;51.350;6.708;2023-07-28T00:16:58;11.52;;;9.40;;
11665;SDS011;5889;51.350;6.708;2023-07-28T00:19:25;9.65;;;8.70;;
11665;SDS011;5889;51.350;6.708;2023-07-28T00:21:52;12.70;;;9.35;;
11665;SDS011;5889;51.350;6.708;2023-07-28T00:24:21;10.68;;;9.55;;
11665;SDS011;5889;51.350;6.708;2023-07-28T00:26:48;13.80;;;10.65;;
11665;SDS011;5889;51.350;6.708;2023-07-28T00:29:15;11.13;;;9.98;;
11665;SDS011;5889;51.350;6.708;2023-07-28T00:31:43;7.50;;;5.68;;
11665;SDS011;5889;51.350;6.708;2023-07-28T00:34:10;6.65;;;5.55;;
11665;SDS011;5889;51.350;6.708;2023-07-28T00:36:37;6.97;;;5.05;;
11665;SDS011;5889;51.350;6.708;2023-07-28T00:39:05;6.93;;;4.18;;
11665;SDS011;5889;51.350;6.708;2023-07-28T00:41:33;8.27;;;4.50;;
11665;SDS011;5889;51.350;6.708;2023-07-28T00:44:00;7.90;;;5.32;;
11665;SDS011;5889;51.350;6.708;2023-07-28T00:46:28;9.82;;;7.00;;
11665;SDS011;5889;51.350;6.708;2023-07-28T00:48:57;7.07;;;6.32;;
11665;SDS011;5889;51.350;6.708;2023-07-28T00:51:24;7.75;;;6.03;;
11665;SDS011;5889;51.350;6.708;2023-07-28T00:53:51;7.18;;;5.32;;
11665;SDS011;5889;51.350;6.708;2023-07-28T00:56:18;7.28;;;5.18;;
11665;SDS011;5889;51.350;6.708;2023-07-28T00:58:47;6.57;;;3.97;;
11665;SDS011;5889;51.350;6.708;2023-07-28T01:01:15;15.02;;;4.10;;
11665;SDS011;5889;51.350;6.708;2023-07-28T01:03:41;5.20;;;3.35;;
11665;SDS011;5889;51.350;6.708;2023-07-28T01:06:13;5.00;;;3.45;;
11665;SDS011;5889;51.350;6.708;2023-07-28T01:08:48;5.03;;;3.72;;
11665;SDS011;5889;51.350;6.708;2023-07-28T01:11:21;7.60;;;4.30;;
11665;SDS011;5889;51.350;6.708;2023-07-28T01:13:48;5.22;;;3.58;;
11665;SDS011;5889;51.350;6.708;2023-07-28T01:16:15;6.05;;;4.00;;
11665;SDS011;5889;51.350;6.708;2023-07-28T01:18:42;7.65;;;3.40;;
11665;SDS011;5889;51.350;6.708;2023-07-28T01:21:11;5.68;;;3.45;;
11665;SDS011;5889;51.350;6.708;2023-07-28T01:23:48;7.00;;;3.40;;
11665;SDS011;5889;51.350;6.708;2023-07-28T01:26:27;5.38;;;3.67;;
11665;SDS011;5889;51.350;6.708;2023-07-28T01:28:56;3.92;;;3.53;;
11665;SDS011;5889;51.350;6.708;2023-07-28T01:31:25;5.35;;;3.47;;
11665;SDS011;5889;51.350;6.708;2023-07-28T01:33:52;5.40;;;3.50;;
11665;SDS011;5889;51.350;6.708;2023-07-28T01:36:29;4.53;;;3.45;;
11665;SDS011;5889;51.350;6.708;2023-07-28T01:38:56;4.88;;;3.38;;
11665;SDS011;5889;51.350;6.708;2023-07-28T01:41:23;8.57;;;3.92;;
11665;SDS011;5889;51.350;6.708;2023-07-28T01:43:51;5.05;;;3.80;;
11665;SDS011;5889;51.350;6.708;2023-07-28T01:46:20;5.80;;;3.47;;
11665;SDS011;5889;51.350;6.708;2023-07-28T01:48:47;5.10;;;3.72;;
11665;SDS011;5889;51.350;6.708;2023-07-28T01:51:14;5.47;;;3.60;;
11665;SDS011;5889;51.350;6.708;2023-07-28T01:53:41;4.70;;;3.60;;
11665;SDS011;5889;51.350;6.708;2023-07-28T01:56:08;4.78;;;3.85;;
11665;SDS011;5889;51.350;6.708;2023-07-28T01:58:35;6.18;;;4.22;;
11665;SDS011;5889;51.350;6.708;2023-07-28T02:01:04;5.05;;;3.78;;
11665;SDS011;5889;51.350;6.708;2023-07-28T02:03:31;4.45;;;3.72;;
11665;SDS011;5889;51.350;6.708;2023-07-28T02:05:58;8.30;;;4.30;;
11665;SDS011;5889;51.350;6.708;2023-07-28T02:08:25;6.00;;;3.97;;
11665;SDS011;5889;51.350;6.708;2023-07-28T02:10:52;5.95;;;4.18;;
11665;SDS011;5889;51.350;6.708;2023-07-28T02:13:19;5.22;;;4.05;;
11665;SDS011;5889;51.350;6.708;2023-07-28T02:15:46;6.45;;;3.97;;
11665;SDS011;5889;51.350;6.708;2023-07-28T02:18:16;4.47;;;3.95;;
11665;SDS011;5889;51.350;6.708;2023-07-28T02:20:43;4.95;;;3.90;;
11665;SDS011;5889;51.350;6.708;2023-07-28T02:23:13;7.18;;;4.00;;
11665;SDS011;5889;51.350;6.708;2023-07-28T02:25:40;5.63;;;3.78;;
11665;SDS011;5889;51.350;6.708;2023-07-28T02:28:08;4.10;;;3.70;;
11665;SDS011;5889;51.350;6.708;2023-07-28T02:30:36;4.10;;;3.70;;
11665;SDS011;5889;51.350;6.708;2023-07-28T02:33:05;5.70;;;3.60;;
11665;SDS011;5889;51.350;6.708;2023-07-28T02:35:33;4.43;;;3.70;;
11665;SDS011;5889;51.350;6.708;2023-07-28T02:38:01;4.15;;;3.47;;
11665;SDS011;5889;51.350;6.708;2023-07-28T02:40:28;3.65;;;3.28;;
11665;SDS011;5889;51.350;6.708;2023-07-28T02:42:55;4.43;;;3.47;;
11665;SDS011;5889;51.350;6.708;2023-07-28T02:45:23;5.93;;;3.30;;
11665;SDS011;5889;51.350;6.708;2023-07-28T02:47:50;4.05;;;3.50;;
11665;SDS011;5889;51.350;6.708;2023-07-28T02:50:17;3.55;;;3.17;;
11665;SDS011;5889;51.350;6.708;2023-07-28T02:52:46;5.13;;;3.30;;
11665;SDS011;5889;51.350;6.708;2023-07-28T02:55:13;4.30;;;3.10;;
11665;SDS011;5889;51.350;6.708;2023-07-28T02:57:40;3.45;;;3.08;;
11665;SDS011;5889;51.350;6.708;2023-07-28T03:00:07;3.58;;;3.22;;
11665;SDS011;5889;51.350;6.708;2023-07-28T03:02:35;5.13;;;4.63;;
11665;SDS011;5889;51.350;6.708;2023-07-28T03:05:02;5.45;;;4.25;;
11665;SDS011;5889;51.350;6.708;2023-07-28T03:07:30;4.80;;;3.53;;
11665;SDS011;5889;51.350;6.708;2023-07-28T03:09:58;4.75;;;3.53;;
11665;SDS011;5889;51.350;6.708;2023-07-28T03:12:25;5.35;;;4.28;;
11665;SDS011;5889;51.350;6.708;2023-07-28T03:14:52;8.07;;;7.00;;
11665;SDS011;5889;51.350;6.708;2023-07-28T03:17:19;6.60;;;4.95;;
11665;SDS011;5889;51.350;6.708;2023-07-28T03:19:46;7.75;;;5.65;;
11665;SDS011;5889;51.350;6.708;2023-07-28T03:22:13;4.38;;;3.97;;
11665;SDS011;5889;51.350;6.708;2023-07-28T03:24:40;4.07;;;3.60;;
11665;SDS011;5889;51.350;6.708;2023-07-28T03:27:09;4.15;;;3.38;;
11665;SDS011;5889;51.350;6.708;2023-07-28T03:29:36;3.22;;;2.90;;
11665;SDS011;5889;51.350;6.708;2023-07-28T03:32:03;4.38;;;2.85;;
11665;SDS011;5889;51.350;6.708;2023-07-28T03:34:30;4.10;;;2.88;;
11665;SDS011;5889;51.350;6.708;2023-07-28T03:36:57;4.50;;;2.92;;
11665;SDS011;5889;51.350;6.708;2023-07-28T03:39:24;3.95;;;2.60;;
11665;SDS011;5889;51.350;6.708;2023-07-28T03:41:51;3.40;;;2.58;;
11665;SDS011;5889;51.350;6.708;2023-07-28T03:44:20;3.00;;;2.53;;
11665;SDS011;5889;51.350;6.708;2023-07-28T03:46:47;3.92;;;2.67;;
11665;SDS011;5889;51.350;6.708;2023-07-28T03:49:14;3.53;;;2.45;;
11665;SDS011;5889;51.350;6.708;2023-07-28T03:51:41;3.42;;;2.40;;
11665;SDS011;5889;51.350;6.708;2023-07-28T03:54:09;5.78;;;2.80;;
11665;SDS011;5889;51.350;6.708;2023-07-28T03:56:36;4.20;;;2.70;;
11665;SDS011;5889;51.350;6.708;2023-07-28T03:59:03;4.18;;;3.03;;
11665;SDS011;5889;51.350;6.708;2023-07-28T04:01:32;3.55;;;2.50;;
11665;SDS011;5889;51.350;6.708;2023-07-28T04:03:59;4.35;;;2.55;;
11665;SDS011;5889;51.350;6.708;2023-07-28T04:06:40;3.47;;;2.53;;
11665;SDS011;5889;51.350;6.708;2023-07-28T04:09:08;3.97;;;2.88;;
11665;SDS011;5889;51.350;6.708;2023-07-28T04:11:35;4.55;;;3.03;;
11665;SDS011;5889;51.350;6.708;2023-07-28T04:14:02;5.35;;;3.28;;
11665;SDS011;5889;51.350;6.708;2023-07-28T04:16:29;5.18;;;3.10;;
11665;SDS011;5889;51.350;6.708;2023-07-28T04:18:58;5.20;;;4.22;;
11665;SDS011;5889;51.350;6.708;2023-07-28T04:21:25;7.05;;;5.18;;
11665;SDS011;5889;51.350;6.708;2023-07-28T04:23:52;4.93;;;4.25;;
11665;SDS011;5889;51.350;6.708;2023-07-28T04:26:19;5.40;;;4.20;;
11665;SDS011;5889;51.350;6.708;2023-07-28T04:28:46;7.88;;;5.30;;
11665;SDS011;5889;51.350;6.708;2023-07-28T04:31:13;11.10;;;6.50;;
11665;SDS011;5889;51.350;6.708;2023-07-28T04:33:40;8.43;;;6.40;;
11665;SDS011;5889;51.350;6.708;2023-07-28T04:36:09;9.82;;;7.32;;
11665;SDS011;5889;51.350;6.708;2023-07-28T04:38:36;9.40;;;7.45;;
11665;SDS011;5889;51.350;6.708;2023-07-28T04:41:03;11.30;;;7.05;;
11665;SDS011;5889;51.350;6.708;2023-07-28T04:43:30;9.38;;;7.68;;
11665;SDS011;5889;51.350;6.708;2023-07-28T04:45:57;9.52;;;6.22;;
11665;SDS011;5889;51.350;6.708;2023-07-28T04:48:24;10.88;;;6.65;;
11665;SDS011;5889;51.350;6.708;2023-07-28T04:50:51;8.65;;;6.10;;
11665;SDS011;5889;51.350;6.708;2023-07-28T04:53:19;9.10;;;6.75;;
11665;SDS011;5889;51.350;6.708;2023-07-28T04:55:46;9.98;;;6.97;;
11665;SDS011;5889;51.350;6.708;2023-07-28T04:58:13;10.55;;;6.85;;
11665;SDS011;5889;51.350;6.708;2023-07-28T05:00:40;10.27;;;7.63;;
11665;SDS011;5889;51.350;6.708;2023-07-28T05:03:07;10.32;;;7.47;;
11665;SDS011;5889;51.350;6.708;2023-07-28T05:05:34;6.55;;;5.90;;
11665;SDS011;5889;51.350;6.708;2023-07-28T05:08:01;5.80;;;5.15;;
11665;SDS011;5889;51.350;6.708;2023-07-28T05:10:29;5.75;;;4.10;;
11665;SDS011;5889;51.350;6.708;2023-07-28T05:12:56;4.75;;;4.25;;
11665;SDS011;5889;51.350;6.708;2023-07-28T05:15:23;6.22;;;3.70;;
11665;SDS011;5889;51.350;6.708;2023-07-28T05:17:50;5.45;;;4.05;;
11665;SDS011;5889;51.350;6.708;2023-07-28T05:20:17;6.03;;;4.47;;
11665;SDS011;5889;51.350;6.708;2023-07-28T05:22:44;6.35;;;5.40;;
11665;SDS011;5889;51.350;6.708;2023-07-28T05:25:11;6.90;;;5.70;;
11665;SDS011;5889;51.350;6.708;2023-07-28T05:27:39;12.00;;;7.15;;
11665;SDS011;5889;51.350;6.708;2023-07-28T05:30:07;13.45;;;7.32;;
11665;SDS011;5889;51.350;6.708;2023-07-28T05:32:34;14.32;;;8.20;;
11665;SDS011;5889;51.350;6.708;2023-07-28T05:35:01;11.48;;;7.30;;
11665;SDS011;5889;51.350;6.708;2023-07-28T05:37:29;9.52;;;6.30;;
11665;SDS011;5889;51.350;6.708;2023-07-28T05:39:56;10.82;;;6.60;;
11665;SDS011;5889;51.350;6.708;2023-07-28T05:42:23;11.20;;;6.28;;
11665;SDS011;5889;51.350;6.708;2023-07-28T05:44:52;9.07;;;6.88;;
11665;SDS011;5889;51.350;6.708;2023-07-28T05:47:20;14.23;;;9.38;;
11665;SDS011;5889;51.350;6.708;2023-07-28T05:49:47;11.05;;;8.70;;
11665;SDS011;5889;51.350;6.708;2023-07-28T05:52:14;12.73;;;8.25;;
11665;SDS011;5889;51.350;6.708;2023-07-28T05:54:41;13.45;;;9.75;;
11665;SDS011;5889;51.350;6.708;2023-07-28T05:57:08;15.45;;;10.25;;
11665;SDS011;5889;51.350;6.708;2023-07-28T05:59:35;11.50;;;9.13;;
11665;SDS011;5889;51.350;6.708;2023-07-28T06:02:03;11.65;;;8.50;;
11665;SDS011;5889;51.350;6.708;2023-07-28T06:04:30;12.55;;;8.48;;
11665;SDS011;5889;51.350;6.708;2023-07-28T06:06:57;9.63;;;7.43;;
11665;SDS011;5889;51.350;6.708;2023-07-28T06:09:24;9.50;;;6.43;;
11665;SDS011;5889;51.350;6.708;2023-07-28T06:11:52;9.02;;;5.95;;
11665;SDS011;5889;51.350;6.708;2023-07-28T06:14:19;8.93;;;5.90;;
11665;SDS011;5889;51.350;6.708;2023-07-28T06:16:46;10.02;;;5.38;;
11665;SDS011;5889;51.350;6.708;2023-07-28T06:19:14;10.43;;;6.18;;
11665;SDS011;5889;51.350;6.708;2023-07-28T06:21:42;7.05;;;4.80;;
11665;SDS011;5889;51.350;6.708;2023-07-28T06:24:09;6.88;;;5.05;;
11665;SDS011;5889;51.350;6.708;2023-07-28T06:26:36;8.35;;;5.88;;
11665;SDS011;5889;51.350;6.708;2023-07-28T06:29:02;8.75;;;5.28;;
11665;SDS011;5889;51.350;6.708;2023-07-28T06:31:30;9.77;;;5.47;;
11665;SDS011;5889;51.350;6.708;2023-07-28T06:33:57;9.52;;;5.88;;
11665;SDS011;5889;51.350;6.708;2023-07-28T06:36:26;10.02;;;5.68;;
11665;SDS011;5889;51.350;6.708;2023-07-28T06:38:53;8.32;;;5.60;;
11665;SDS011;5889;51.350;6.708;2023-07-28T06:41:20;7.30;;;5.10;;
11665;SDS011;5889;51.350;6.708;2023-07-28T06:43:47;7.90;;;4.55;;
11665;SDS011;5889;51.350;6.708;2023-07-28T06:46:14;7.88;;;5.00;;
11665;SDS011;5889;51.350;6.708;2023-07-28T06:48:41;8.65;;;5.25;;
11665;SDS011;5889;51.350;6.708;2023-07-28T06:51:08;8.82;;;5.32;;
11665;SDS011;5889;51.350;6.708;2023-07-28T06:53:36;8.40;;;5.53;;
11665;SDS011;5889;51.350;6.708;2023-07-28T06:56:04;8.27;;;5.55;;
11665;SDS011;5889;51.350;6.708;2023-07-28T06:58:30;8.48;;;5.85;;
11665;SDS011;5889;51.350;6.708;2023-07-28T07:00:57;13.38;;;6.90;;
11665;SDS011;5889;51.350;6.708;2023-07-28T07:03:24;8.25;;;5.95;;
11665;SDS011;5889;51.350;6.708;2023-07-28T07:05:51;8.88;;;5.93;;
11665;SDS011;5889;51.350;6.708;2023-07-28T07:08:18;8.55;;;5.53;;
11665;SDS011;5889;51.350;6.708;2023-07-28T07:10:50;7.43;;;4.60;;
11665;SDS011;5889;51.350;6.708;2023-07-28T07:13:17;6.85;;;4.57;;
11665;SDS011;5889;51.350;6.708;2023-07-28T07:15:44;8.43;;;4.38;;
11665;SDS011;5889;51.350;6.708;2023-07-28T07:18:12;8.50;;;4.47;;
11665;SDS011;5889;51.350;6.708;2023-07-28T07:20:39;8.25;;;5.93;;
11665;SDS011;5889;51.350;6.708;2023-07-28T07:23:06;8.98;;;7.25;;
11665;SDS011;5889;51.350;6.708;2023-07-28T07:25:33;8.40;;;6.63;;
11665;SDS011;5889;51.350;6.708;2023-07-28T07:28:02;9.63;;;7.20;;
11665;SDS011;5889;51.350;6.708;2023-07-28T07:30:31;7.55;;;5.50;;
11665;SDS011;5889;51.350;6.708;2023-07-28T07:32:59;7.93;;;6.15;;
11665;SDS011;5889;51.350;6.708;2023-07-28T07:35:26;8.68;;;5.10;;
11665;SDS011;5889;51.350;6.708;2023-07-28T07:37:53;8.88;;;6.22;;
11665;SDS011;5889;51.350;6.708;2023-07-28T07:40:19;7.00;;;5.32;;
11665;SDS011;5889;51.350;6.708;2023-07-28T07:42:47;6.88;;;5.25;;
11665;SDS011;5889;51.350;6.708;2023-07-28T07:45:17;8.35;;;5.50;;
11665;SDS011;5889;51.350;6.708;2023-07-28T07:47:44;5.35;;;4.60;;
11665;SDS011;5889;51.350;6.708;2023-07-28T07:50:11;8.02;;;4.55;;
11665;SDS011;5889;51.350;6.708;2023-07-28T07:52:38;4.57;;;3.10;;
11665;SDS011;5889;51.350;6.708;2023-07-28T07:55:06;8.23;;;5.05;;
11665;SDS011;5889;51.350;6.708;2023-07-28T07:57:33;5.55;;;5.05;;
11665;SDS011;5889;51.350;6.708;2023-07-28T08:00:00;7.97;;;5.90;;
11665;SDS011;5889;51.350;6.708;2023-07-28T08:02:29;7.72;;;6.93;;
11665;SDS011;5889;51.350;6.708;2023-07-28T08:04:56;7.65;;;6.55;;
11665;SDS011;5889;51.350;6.708;2023-07-28T08:07:23;4.18;;;3.05;;
11665;SDS011;5889;51.350;6.708;2023-07-28T08:09:50;3.70;;;3.22;;
11665;SDS011;5889;51.350;6.708;2023-07-28T08:12:17;3.55;;;2.60;;
11665;SDS011;5889;51.350;6.708;2023-07-28T08:14:44;2.92;;;2.30;;
11665;SDS011;5889;51.350;6.708;2023-07-28T08:17:11;6.28;;;3.95;;
11665;SDS011;5889;51.350;6.708;2023-07-28T08:19:40;4.53;;;4.05;;
11665;SDS011;5889;51.350;6.708;2023-07-28T08:22:07;4.53;;;3.50;;
11665;SDS011;5889;51.350;6.708;2023-07-28T08:24:34;4.63;;;2.17;;
11665;SDS011;5889;51.350;6.708;2023-07-28T08:27:01;3.10;;;2.80;;
11665;SDS011;5889;51.350;6.708;2023-07-28T08:29:28;7.28;;;5.43;;
11665;SDS011;5889;51.350;6.708;2023-07-28T08:31:56;6.55;;;4.85;;
11665;SDS011;5889;51.350;6.708;2023-07-28T08:34:23;5.75;;;5.07;;
11665;SDS011;5889;51.350;6.708;2023-07-28T08:36:51;7.88;;;5.20;;
11665;SDS011;5889;51.350;6.708;2023-07-28T08:39:18;4.50;;;3.55;;
11665;SDS011;5889;51.350;6.708;2023-07-28T08:41:45;5.28;;;4.03;;
11665;SDS011;5889;51.350;6.708;2023-07-28T08:44:12;5.97;;;4.22;;
11665;SDS011;5889;51.350;6.708;2023-07-28T08:46:40;5.32;;;4.60;;
11665;SDS011;5889;51.350;6.708;2023-07-28T08:49:07;7.30;;;6.50;;
11665;SDS011;5889;51.350;6.708;2023-07-28T08:51:34;9.45;;;7.13;;
11665;SDS011;5889;51.350;6.708;2023-07-28T08:54:08;7.40;;;6.60;;
11665;SDS011;5889;51.350;6.708;2023-07-28T08:56:34;8.30;;;6.63;;
11665;SDS011;5889;51.350;6.708;2023-07-28T08:59:01;6.82;;;4.93;;
11665;SDS011;5889;51.350;6.708;2023-07-28T09:01:29;5.18;;;3.95;;
11665;SDS011;5889;51.350;6.708;2023-07-28T09:03:56;8.02;;;5.07;;
11665;SDS011;5889;51.350;6.708;2023-07-28T09:06:27;6.60;;;4.15;;
11665;SDS011;5889;51.350;6.708;2023-07-28T09:08:56;4.65;;;3.80;;
11665;SDS011;5889;51.350;6.708;2023-07-28T09:11:25;5.72;;;4.38;;
11665;SDS011;5889;51.350;6.708;2023-07-28T09:13:53;7.85;;;4.60;;
11665;SDS011;5889;51.350;6.708;2023-07-28T09:16:22;6.60;;;4.15;;
11665;SDS011;5889;51.350;6.708;2023-07-28T09:18:49;7.05;;;4.60;;
11665;SDS011;5889;51.350;6.708;2023-07-28T09:21:17;4.38;;;3.97;;
11665;SDS011;5889;51.350;6.708;2023-07-28T09:23:45;4.38;;;3.50;;
11665;SDS011;5889;51.350;6.708;2023-07-28T09:26:13;4.40;;;3.88;;
11665;SDS011;5889;51.350;6.708;2023-07-28T09:28:42;4.72;;;3.45;;
11665;SDS011;5889;51.350;6.708;2023-07-28T09:31:09;6.55;;;4.35;;
11665;SDS011;5889;51.350;6.708;2023-07-28T09:33:36;4.93;;;4.43;;
11665;SDS011;5889;51.350;6.708;2023-07-28T09:36:08;6.25;;;5.63;;
11665;SDS011;5889;51.350;6.708;2023-07-28T09:38:39;7.45;;;6.65;;
11665;SDS011;5889;51.350;6.708;2023-07-28T09:41:08;5.40;;;4.60;;
11665;SDS011;5889;51.350;6.708;2023-07-28T09:43:36;5.90;;;4.20;;
11665;SDS011;5889;51.350;6.708;2023-07-28T09:46:06;4.57;;;3.85;;
11665;SDS011;5889;51.350;6.708;2023-07-28T09:48:35;4.78;;;3.85;;
11665;SDS011;5889;51.350;6.708;2023-07-28T09:51:05;5.38;;;4.13;;
11665;SDS011;5889;51.350;6.708;2023-07-28T09:53:40;8.20;;;5.10;;
11665;SDS011;5889;51.350;6.708;2023-07-28T09:56:11;5.35;;;3.90;;
11665;SDS011;5889;51.350;6.708;2023-07-28T09:58:41;5.70;;;4.13;;
11665;SDS011;5889;51.350;6.708;2023-07-28T10:01:16;5.43;;;3.90;;
11665;SDS011;5889;51.350;6.708;2023-07-28T10:03:43;5.78;;;4.38;;
11665;SDS011;5889;51.350;6.708;2023-07-28T10:06:11;4.97;;;4.47;;
11665;SDS011;5889;51.350;6.708;2023-07-28T10:08:39;8.38;;;4.50;;
11665;SDS011;5889;51.350;6.708;2023-07-28T10:11:06;5.25;;;3.60;;
11665;SDS011;5889;51.350;6.708;2023-07-28T10:13:39;4.28;;;3.83;;
11665;SDS011;5889;51.350;6.708;2023-07-28T10:16:07;4.47;;;3.80;;
11665;SDS011;5889;51.350;6.708;2023-07-28T10:18:36;7.43;;;3.67;;
11665;SDS011;5889;51.350;6.708;2023-07-28T10:21:04;3.85;;;3.55;;
11665;SDS011;5889;51.350;6.708;2023-07-28T10:23:33;5.43;;;3.90;;
11665;SDS011;5889;51.350;6.708;2023-07-28T10:26:02;3.10;;;2.80;;
11665;SDS011;5889;51.350;6.708;2023-07-28T10:28:31;2.97;;;2.28;;
11665;SDS011;5889;51.350;6.708;2023-07-28T10:31:04;3.45;;;2.58;;
11665;SDS011;5889;51.350;6.708;2023-07-28T10:33:32;3.70;;;2.30;;
11665;SDS011;5889;51.350;6.708;2023-07-28T10:36:11;3.28;;;1.90;;
11665;SDS011;5889;51.350;6.708;2023-07-28T10:38:40;2.45;;;2.00;;
11665;SDS011;5889;51.350;6.708;2023-07-28T10:41:12;3.10;;;1.80;;
11665;SDS011;5889;51.350;6.708;2023-07-28T10:43:41;3.90;;;2.15;;
11665;SDS011;5889;51.350;6.708;2023-07-28T10:46:09;3.35;;;1.80;;
11665;SDS011;5889;51.350;6.708;2023-07-28T10:48:41;2.00;;;1.55;;
11665;SDS011;5889;51.350;6.708;2023-07-28T10:51:08;2.65;;;1.85;;
11665;SDS011;5889;51.350;6.708;2023-07-28T10:53:38;2.58;;;1.67;;
11665;SDS011;5889;51.350;6.708;2023-07-28T10:56:05;2.38;;;1.70;;
11665;SDS011;5889;51.350;6.708;2023-07-28T10:58:35;1.50;;;1.40;;
11665;SDS011;5889;51.350;6.708;2023-07-28T11:01:02;3.20;;;1.80;;
11665;SDS011;5889;51.350;6.708;2023-07-28T11:03:29;1.35;;;1.23;;
11665;SDS011;5889;51.350;6.708;2023-07-28T11:05:57;1.40;;;1.30;;
11665;SDS011;5889;51.350;6.708;2023-07-28T11:08:24;2.28;;;1.40;;
11665;SDS011;5889;51.350;6.708;2023-07-28T11:10:52;1.42;;;0.95;;
11665;SDS011;5889;51.350;6.708;2023-07-28T11:13:20;1.00;;;0.90;;
11665;SDS011;5889;51.350;6.708;2023-07-28T11:15:50;1.20;;;1.00;;
11665;SDS011;5889;51.350;6.708;2023-07-28T11:18:17;1.70;;;1.10;;
11665;SDS011;5889;51.350;6.708;2023-07-28T11:20:44;3.78;;;1.13;;
11665;SDS011;5889;51.350;6.708;2023-07-28T11:23:13;7.20;;;2.28;;
11665;SDS011;5889;51.350;6.708;2023-07-28T11:25:43;6.30;;;1.63;;
11665;SDS011;5889;51.350;6.708;2023-07-28T11:28:14;1.77;;;1.13;;
11665;SDS011;5889;51.350;6.708;2023-07-28T11:30:41;1.02;;;1.00;;
11665;SDS011;5889;51.350;6.708;2023-07-28T11:33:09;1.58;;;0.90;;
11665;SDS011;5889;51.350;6.708;2023-07-28T11:35:37;2.50;;;1.45;;
11665;SDS011;5889;51.350;6.708;2023-07-28T11:38:05;1.98;;;1.20;;
11665;SDS011;5889;51.350;6.708;2023-07-28T11:40:33;1.92;;;0.80;;
11665;SDS011;5889;51.350;6.708;2023-07-28T11:43:00;2.33;;;1.00;;
11665;SDS011;5889;51.350;6.708;2023-07-28T11:45:29;3.80;;;1.20;;
11665;SDS011;5889;51.350;6.708;2023-07-28T11:47:57;2.45;;;1.20;;
11665;SDS011;5889;51.350;6.708;2023-07-28T11:50:26;2.20;;;1.48;;
11665;SDS011;5889;51.350;6.708;2023-07-28T11:52:54;2.35;;;1.10;;
11665;SDS011;5889;51.350;6.708;2023-07-28T11:55:23;1.17;;;1.08;;
11665;SDS011;5889;51.350;6.708;2023-07-28T11:57:51;1.95;;;1.00;;
11665;SDS011;5889;51.350;6.708;2023-07-28T12:00:18;1.83;;;1.10;;
11665;SDS011;5889;51.350;6.708;2023-07-28T12:03:01;1.75;;;0.75;;
11665;SDS011;5889;51.350;6.708;2023-07-28T12:05:33;1.25;;;0.90;;
11665;SDS011;5889;51.350;6.708;2023-07-28T12:08:00;0.77;;;0.70;;
11665;SDS011;5889;51.350;6.708;2023-07-28T12:10:28;1.13;;;0.80;;
11665;SDS011;5889;51.350;6.708;2023-07-28T12:12:57;2.00;;;0.90;;
11665;SDS011;5889;51.350;6.708;2023-07-28T12:15:29;3.17;;;0.90;;
11665;SDS011;5889;51.350;6.708;2023-07-28T12:18:09;2.42;;;0.70;;
11665;SDS011;5889;51.350;6.708;2023-07-28T12:20:38;2.38;;;0.70;;
11665;SDS011;5889;51.350;6.708;2023-07-28T12:23:07;3.25;;;0.80;;
11665;SDS011;5889;51.350;6.708;2023-07-28T12:25:35;1.73;;;0.70;;
11665;SDS011;5889;51.350;6.708;2023-07-28T12:28:02;0.80;;;0.70;;
11665;SDS011;5889;51.350;6.708;2023-07-28T12:30:29;2.75;;;1.00;;
11665;SDS011;5889;51.350;6.708;2023-07-28T12:32:56;1.67;;;1.10;;
11665;SDS011;5889;51.350;6.708;2023-07-28T12:35:25;1.65;;;1.00;;
11665;SDS011;5889;51.350;6.708;2023-07-28T12:37:56;2.15;;;0.90;;
11665;SDS011;5889;51.350;6.708;2023-07-28T12:40:25;0.85;;;0.80;;
11665;SDS011;5889;51.350;6.708;2023-07-28T12:42:55;1.10;;;0.90;;
11665;SDS011;5889;51.350;6.708;2023-07-28T12:45:23;1.13;;;0.90;;
11665;SDS011;5889;51.350;6.708;2023-07-28T12:47:51;2.20;;;0.98;;
11665;SDS011;5889;51.350;6.708;2023-07-28T12:50:19;1.65;;;1.15;;
11665;SDS011;5889;51.350;6.708;2023-07-28T12:52:47;1.33;;;1.13;;
11665;SDS011;5889;51.350;6.708;2023-07-28T12:55:14;1.42;;;0.80;;
11665;SDS011;5889;51.350;6.708;2023-07-28T12:57:42;1.70;;;0.85;;
11665;SDS011;5889;51.350;6.708;2023-07-28T13:00:09;2.78;;;1.05;;
11665;SDS011;5889;51.350;6.708;2023-07-28T13:02:38;2.67;;;1.00;;
11665;SDS011;5889;51.350;6.708;2023-07-28T13:05:06;1.77;;;0.90;;
11665;SDS011;5889;51.350;6.708;2023-07-28T13:07:35;1.27;;;0.82;;
11665;SDS011;5889;51.350;6.708;2023-07-28T13:10:05;3.80;;;1.05;;
11665;SDS011;5889;51.350;6.708;2023-07-28T13:12:34;1.58;;;1.25;;
11665;SDS011;5889;51.350;6.708;2023-07-28T13:15:02;2.08;;;1.20;;
11665;SDS011;5889;51.350;6.708;2023-07-28T13:17:29;2.30;;;1.00;;
11665;SDS011;5889;51.350;6.708;2023-07-28T13:19:56;3.45;;;1.10;;
11665;SDS011;5889;51.350;6.708;2023-07-28T13:22:24;1.65;;;1.00;;
11665;SDS011;5889;51.350;6.708;2023-07-28T13:24:52;1.70;;;0.98;;
11665;SDS011;5889;51.350;6.708;2023-07-28T13:27:20;2.85;;;1.50;;
11665;SDS011;5889;51.350;6.708;2023-07-28T13:29:47;3.10;;;1.08;;
11665;SDS011;5889;51.350;6.708;2023-07-28T13:32:15;3.05;;;0.80;;
11665;SDS011;5889;51.350;6.708;2023-07-28T13:34:44;1.63;;;1.20;;
11665;SDS011;5889;51.350;6.708;2023-07-28T13:37:11;2.63;;;1.00;;
11665;SDS011;5889;51.350;6.708;2023-07-28T13:39:38;4.28;;;1.20;;
11665;SDS011;5889;51.350;6.708;2023-07-28T13:42:05;4.20;;;1.17;;
11665;SDS011;5889;51.350;6.708;2023-07-28T13:44:33;0.80;;;0.80;;
11665;SDS011;5889;51.350;6.708;2023-07-28T13:47:00;1.50;;;1.17;;
11665;SDS011;5889;51.350;6.708;2023-07-28T13:49:27;1.35;;;1.25;;
11665;SDS011;5889;51.350;6.708;2023-07-28T13:51:54;1.42;;;1.10;;
11665;SDS011;5889;51.350;6.708;2023-07-28T13:54:21;2.22;;;0.98;;
11665;SDS011;5889;51.350;6.708;2023-07-28T13:56:48;1.00;;;0.82;;
11665;SDS011;5889;51.350;6.708;2023-07-28T13:59:15;2.35;;;0.98;;
11665;SDS011;5889;51.350;6.708;2023-07-28T14:01:43;0.95;;;0.95;;
11665;SDS011;5889;51.350;6.708;2023-07-28T14:04:10;2.92;;;1.58;;
11665;SDS011;5889;51.350;6.708;2023-07-28T14:06:39;1.50;;;1.25;;
11665;SDS011;5889;51.350;6.708;2023-07-28T14:09:06;2.10;;;1.10;;
11665;SDS011;5889;51.350;6.708;2023-07-28T14:11:33;1.15;;;1.10;;
11665;SDS011;5889;51.350;6.708;2023-07-28T14:14:00;3.22;;;0.90;;
11665;SDS011;5889;51.350;6.708;2023-07-28T14:16:27;2.47;;;0.90;;
11665;SDS011;5889;51.350;6.708;2023-07-28T14:18:56;0.93;;;0.90;;
11665;SDS011;5889;51.350;6.708;2023-07-28T14:21:23;2.08;;;0.80;;
11665;SDS011;5889;51.350;6.708;2023-07-28T14:23:50;1.00;;;0.68;;
11665;SDS011;5889;51.350;6.708;2023-07-28T14:26:17;2.38;;;1.02;;
11665;SDS011;5889;51.350;6.708;2023-07-28T14:28:44;2.42;;;1.10;;
11665;SDS011;5889;51.350;6.708;2023-07-28T14:31:11;1.95;;;0.88;;
11665;SDS011;5889;51.350;6.708;2023-07-28T14:33:38;1.52;;;1.02;;
11665;SDS011;5889;51.350;6.708;2023-07-28T14:36:06;1.98;;;1.13;;
11665;SDS011;5889;51.350;6.708;2023-07-28T14:38:34;0.80;;;0.80;;
11665;SDS011;5889;51.350;6.708;2023-07-28T14:41:01;0.90;;;0.90;;
11665;SDS011;5889;51.350;6.708;2023-07-28T14:43:28;0.90;;;0.90;;
11665;SDS011;5889;51.350;6.708;2023-07-28T14:45:55;1.42;;;1.00;;
11665;SDS011;5889;51.350;6.708;2023-07-28T14:48:22;0.70;;;0.70;;
11665;SDS011;5889;51.350;6.708;2023-07-28T14:50:49;2.28;;;0.82;;
11665;SDS011;5889;51.350;6.708;2023-07-28T14:53:30;1.35;;;1.00;;
11665;SDS011;5889;51.350;6.708;2023-07-28T14:55:58;2.75;;;1.10;;
11665;SDS011;5889;51.350;6.708;2023-07-28T14:58:26;3.63;;;1.08;;
11665;SDS011;5889;51.350;6.708;2023-07-28T15:00:53;1.00;;;0.75;;
11665;SDS011;5889;51.350;6.708;2023-07-28T15:03:21;1.67;;;0.98;;
11665;SDS011;5889;51.350;6.708;2023-07-28T15:05:48;2.60;;;1.00;;